Time;durP1;ratioP1;P1;durP2;ratioP2;P2;SDS_P1;SDS_P2;PMS_P1;PMS_P2;Temp;Humidity;BMP_temperature;BMP_pressure;BME280_temperature;BME280_humidity;BME280_pressure;Samples;Min_cycle;Max_cycle;Signal;HPM_P1;HPM_P2
2022/03/10 00:00:40;;;;;;;;;33.50;31.25;;;;;13.65;44.51;101423.47;2121770;27;47551;-69
2022/03/10 00:01:40;;;;;;;;;33.00;30.00;;;;;13.64;44.48;101421.72;2114836;27;47414;-67
2022/03/10 00:02:43;;;;;;;;;34.00;30.75;;;;;13.63;44.50;101417.28;2116117;27;47356;-70
2022/03/10 00:03:43;;;;;;;;;34.20;31.60;;;;;13.63;45.01;101419.94;2126805;27;47526;-68
2022/03/10 00:04:43;;;;;;;;;36.50;32.75;;;;;13.62;44.41;101416.41;2122702;27;47564;-65
2022/03/10 00:05:44;;;;;;;;;29.00;29.00;;;;;13.61;44.30;101417.31;2125120;27;48324;-67
2022/03/10 00:06:45;;;;;;;;;30.50;29.25;;;;;13.61;44.26;101424.44;2119524;27;47501;-68
2022/03/10 00:07:46;;;;;;;;;32.25;31.00;;;;;13.61;44.47;101413.78;2110442;27;48228;-67
2022/03/10 00:08:47;;;;;;;;;32.00;30.20;;;;;13.61;44.51;101420.00;2119854;27;48399;-67
2022/03/10 00:09:47;;;;;;;;;34.50;31.25;;;;;13.60;44.37;101420.03;2130121;27;47892;-68
2022/03/10 00:10:48;;;;;;;;;27.00;26.75;;;;;13.59;44.28;101418.25;2120822;27;47284;-67
2022/03/10 00:11:48;;;;;;;;;37.25;32.75;;;;;13.59;44.55;101424.47;2125836;27;48294;-69
2022/03/10 00:12:50;;;;;;;;;26.75;26.75;;;;;13.59;44.31;101423.59;2121767;27;47486;-65
2022/03/10 00:13:51;;;;;;;;;35.80;30.40;;;;;13.60;44.37;101417.38;2122080;27;47060;-69
2022/03/10 00:14:51;;;;;;;;;35.50;32.00;;;;;13.59;44.35;101424.47;2121669;27;47346;-69
2022/03/10 00:15:52;;;;;;;;;29.25;29.25;;;;;13.59;44.34;101424.47;2126323;27;47495;-68
2022/03/10 00:16:53;;;;;;;;;32.00;30.25;;;;;13.58;44.42;101417.38;2122080;27;48013;-69
2022/03/10 00:17:54;;;;;;;;;32.40;30.20;;;;;13.58;44.17;101420.03;2129356;27;48505;-68
2022/03/10 00:18:54;;;;;;;;;30.80;28.80;;;;;13.58;44.42;101416.50;2121665;27;47423;-66
2022/03/10 00:19:55;;;;;;;;;29.75;27.75;;;;;13.57;44.39;101412.94;2129065;27;47513;-69
2022/03/10 00:20:55;;;;;;;;;31.00;29.00;;;;;13.57;44.51;101412.94;2129408;27;47522;-67
2022/03/10 00:21:55;;;;;;;;;31.50;29.50;;;;;13.58;44.42;101419.16;2126316;27;47980;-66
2022/03/10 00:22:57;;;;;;;;;32.75;29.75;;;;;13.57;44.33;101415.63;2123058;27;47238;-69
2022/03/10 00:23:57;;;;;;;;;34.40;30.00;;;;;13.58;44.46;101411.16;2103089;28;47995;-66
2022/03/10 00:24:58;;;;;;;;;34.00;32.00;;;;;13.58;44.14;101412.03;2101003;27;48376;-69
2022/03/10 00:25:58;;;;;;;;;35.50;32.00;;;;;13.57;44.25;101412.94;2119720;27;47340;-68
2022/03/10 00:26:58;;;;;;;;;29.75;28.50;;;;;13.58;44.46;101413.81;2118962;27;48067;-67
2022/03/10 00:27:59;;;;;;;;;26.50;26.50;;;;;13.57;44.12;101412.06;2125379;27;47780;-69
2022/03/10 00:28:59;;;;;;;;;34.75;30.25;;;;;13.58;44.21;101416.50;2128471;27;47630;-68
2022/03/10 00:30:00;;;;;;;;;35.00;30.50;;;;;13.57;44.38;101417.41;2122774;27;47399;-66
2022/03/10 00:31:00;;;;;;;;;4.75;3.50;;;;;13.54;44.26;101408.56;2122308;27;47747;-67
2022/03/10 00:32:01;;;;;;;;;34.25;30.00;;;;;13.54;44.39;101410.38;2103057;28;46810;-67
2022/03/10 00:33:02;;;;;;;;;34.00;31.25;;;;;13.53;44.37;101414.81;2094299;28;47577;-66
2022/03/10 00:34:02;;;;;;;;;33.75;28.75;;;;;13.54;44.01;101418.38;2116542;27;47279;-67
2022/03/10 00:35:03;;;;;;;;;38.50;33.25;;;;;13.54;44.37;101424.56;2122435;27;47955;-67
2022/03/10 00:36:05;;;;;;;;;34.00;28.75;;;;;13.52;44.17;101415.72;2103742;27;47581;-67
2022/03/10 00:37:06;;;;;;;;;35.60;32.20;;;;;13.53;44.18;101417.50;2100665;27;47573;-66
2022/03/10 00:38:06;;;;;;;;;35.00;32.00;;;;;13.52;44.26;101420.19;2120704;27;47600;-66
2022/03/10 00:39:07;;;;;;;;;32.00;30.00;;;;;13.51;44.35;101432.66;2126788;27;48051;-69
2022/03/10 00:40:07;;;;;;;;;34.00;31.50;;;;;13.52;44.29;101422.84;2127470;27;47846;-69
2022/03/10 00:41:10;;;;;;;;;35.00;32.25;;;;;13.52;44.23;101420.19;2123907;27;48164;-68
2022/03/10 00:42:11;;;;;;;;;33.40;29.00;;;;;13.51;44.39;101421.09;2127214;27;47227;-67
2022/03/10 00:43:12;;;;;;;;;30.75;30.00;;;;;13.51;44.36;101427.31;2122232;27;47617;-69
2022/03/10 00:44:13;;;;;;;;;33.80;31.60;;;;;13.51;44.24;101421.09;2128614;27;48087;-67
2022/03/10 00:45:15;;;;;;;;;36.50;32.25;;;;;13.51;44.10;101424.66;2128041;27;47512;-68
2022/03/10 00:46:15;;;;;;;;;29.40;28.00;;;;;13.51;44.28;101424.66;2129997;27;47867;-68
2022/03/10 00:47:16;;;;;;;;;28.00;27.75;;;;;13.51;44.28;101426.44;2128154;27;47846;-69
2022/03/10 00:48:16;;;;;;;;;31.75;29.75;;;;;13.50;44.46;101422.91;2123083;27;48006;-68
2022/03/10 00:49:17;;;;;;;;;29.00;28.50;;;;;13.50;44.34;101424.69;2124566;27;47188;-69
2022/03/10 00:50:17;;;;;;;;;34.50;31.50;;;;;13.49;44.04;101423.81;2126594;27;47937;-68
2022/03/10 00:51:18;;;;;;;;;29.75;28.75;;;;;13.50;44.28;101425.56;2125209;27;47438;-67
2022/03/10 00:52:18;;;;;;;;;34.25;30.00;;;;;13.50;44.23;101432.69;2122878;27;46201;-69
2022/03/10 00:53:19;;;;;;;;;34.75;32.00;;;;;13.49;44.23;101422.94;2123657;27;48079;-69
2022/03/10 00:54:19;;;;;;;;;34.75;31.00;;;;;13.49;44.28;101429.16;2113173;27;47951;-67
2022/03/10 00:55:21;;;;;;;;;28.50;28.50;;;;;13.48;44.20;101432.72;2113110;27;47608;-69
2022/03/10 00:56:21;;;;;;;;;30.40;28.20;;;;;13.47;44.21;101425.63;2125764;27;47623;-68
2022/03/10 00:57:22;;;;;;;;;33.00;30.25;;;;;13.48;43.99;101434.50;2125505;27;48327;-68
2022/03/10 00:58:23;;;;;;;;;34.00;31.20;;;;;13.47;43.93;101425.63;2127073;27;47459;-67
2022/03/10 00:59:23;;;;;;;;;32.50;30.00;;;;;13.47;44.15;101428.31;2125474;27;47961;-66
2022/03/10 01:00:25;;;;;;;;;36.75;31.75;;;;;13.47;44.24;101422.97;2127285;27;47825;-67
2022/03/10 01:01:26;;;;;;;;;34.20;31.20;;;;;13.48;44.19;101429.19;2098756;28;45972;-67
2022/03/10 01:02:29;;;;;;;;;28.50;27.25;;;;;13.48;44.10;101431.84;2103485;28;47724;-67
2022/03/10 01:03:30;;;;;;;;;31.20;28.80;;;;;13.48;43.94;101426.50;2100463;28;47099;-67
2022/03/10 01:04:30;;;;;;;;;33.25;30.50;;;;;13.47;43.86;101428.31;2094553;28;47731;-67
2022/03/10 01:05:31;;;;;;;;;31.00;30.00;;;;;13.47;44.02;101419.44;2093421;28;47697;-67
2022/03/10 01:06:31;;;;;;;;;31.00;29.50;;;;;13.46;44.19;101422.97;2095115;28;47784;-68
2022/03/10 01:07:32;;;;;;;;;30.75;30.00;;;;;13.47;43.99;101422.97;2100000;28;48332;-68
2022/03/10 01:08:33;;;;;;;;;36.50;30.75;;;;;13.46;44.20;101431.84;2103692;28;48234;-69
2022/03/10 01:09:33;;;;;;;;;33.50;31.00;;;;;13.46;44.10;101431.84;2099285;28;47544;-67
2022/03/10 01:10:34;;;;;;;;;29.25;29.25;;;;;13.45;43.87;101431.91;2103435;28;47789;-68
2022/03/10 01:11:35;;;;;;;;;34.50;31.75;;;;;13.43;44.24;101429.25;2097610;28;47667;-67
2022/03/10 01:12:35;;;;;;;;;32.50;29.75;;;;;13.43;44.02;101431.06;2103581;28;48628;-67
2022/03/10 01:13:36;;;;;;;;;31.75;30.00;;;;;13.42;43.97;101426.63;2101326;27;47889;-68
2022/03/10 01:14:36;;;;;;;;;30.00;29.50;;;;;13.42;43.92;101426.63;2103689;28;47968;-66
2022/03/10 01:15:37;;;;;;;;;30.50;28.25;;;;;13.42;43.97;101426.63;2100562;28;47236;-67
2022/03/10 01:16:38;;;;;;;;;36.00;31.50;;;;;13.41;44.03;101433.75;2103478;28;47441;-68
2022/03/10 01:17:38;;;;;;;;;32.20;29.60;;;;;13.40;43.96;101433.78;2097907;28;47800;-68
2022/03/10 01:18:39;;;;;;;;;31.50;30.00;;;;;13.40;43.98;101431.13;2103805;28;47491;-68
2022/03/10 01:19:39;;;;;;;;;27.00;25.00;;;;;13.39;43.99;101432.91;2097868;28;47304;-67
2022/03/10 01:20:40;;;;;;;;;35.00;32.00;;;;;13.38;43.93;101428.50;2103725;28;47385;-67
2022/03/10 01:21:44;;;;;;;;;32.60;30.20;;;;;13.38;43.92;101422.28;2101067;28;47911;-67
2022/03/10 01:22:45;;;;;;;;;31.20;29.60;;;;;13.38;43.98;101435.63;2102872;27;48096;-67
2022/03/10 01:23:45;;;;;;;;;21.60;20.20;;;;;13.38;43.89;101435.63;2102129;28;47096;-67
2022/03/10 01:24:45;;;;;;;;;33.00;30.50;;;;;13.38;43.75;101436.50;2102429;28;47797;-68
2022/03/10 01:25:46;;;;;;;;;30.50;30.00;;;;;13.37;43.95;101434.75;2099105;28;47745;-65
2022/03/10 01:26:46;;;;;;;;;31.50;28.75;;;;;13.37;43.93;101440.06;2103050;28;47893;-67
2022/03/10 01:27:48;;;;;;;;;32.50;30.00;;;;;13.37;43.88;101433.88;2081377;28;46390;-67
2022/03/10 01:28:48;;;;;;;;;30.00;28.20;;;;;13.36;43.83;101430.31;2085432;28;47920;-67
2022/03/10 01:29:49;;;;;;;;;36.00;31.75;;;;;13.36;43.79;101432.13;2101738;28;47433;-66
2022/03/10 01:30:49;;;;;;;;;27.50;27.00;;;;;13.34;43.71;101426.81;2076629;28;47390;-68
2022/03/10 01:31:50;;;;;;;;;32.75;31.25;;;;;13.34;43.66;101428.59;2074349;28;46843;-69
2022/03/10 01:32:50;;;;;;;;;36.00;30.50;;;;;13.32;43.70;101425.06;2099656;27;47691;-67
2022/03/10 01:33:51;;;;;;;;;34.00;29.75;;;;;13.31;43.64;101418.88;2122340;27;47670;-68
2022/03/10 01:34:52;;;;;;;;;30.00;29.25;;;;;13.31;43.61;101418.00;2121278;27;47572;-66
2022/03/10 01:35:52;;;;;;;;;26.80;26.40;;;;;13.29;43.55;101419.81;2127689;27;47919;-66
2022/03/10 01:36:53;;;;;;;;;28.50;28.25;;;;;13.28;43.79;101418.94;2121490;27;47909;-67
2022/03/10 01:37:53;;;;;;;;;28.75;27.75;;;;;13.27;43.68;101422.53;2110360;27;48071;-64
2022/03/10 01:38:54;;;;;;;;;33.50;30.25;;;;;13.27;43.80;101417.19;2106078;27;47114;-67
2022/03/10 01:39:55;;;;;;;;;34.00;29.75;;;;;13.27;43.72;101421.66;2118541;27;48092;-65
2022/03/10 01:40:55;;;;;;;;;32.80;29.80;;;;;13.25;43.67;101417.22;2112551;27;47421;-66
2022/03/10 01:41:56;;;;;;;;;33.00;29.50;;;;;13.23;43.49;101420.84;2125668;27;47727;-69
2022/03/10 01:42:56;;;;;;;;;29.00;27.50;;;;;13.24;43.60;101423.47;2095567;28;46226;-65
2022/03/10 01:44:05;;;;;;;;;31.75;30.00;;;;;13.23;43.65;101418.19;2102971;28;46988;-68
2022/03/10 01:45:07;;;;;;;;;31.60;30.00;;;;;13.22;43.55;101414.63;2097812;28;47190;-68
2022/03/10 01:46:08;;;;;;;;;32.80;29.40;;;;;13.20;43.67;101418.22;2102754;27;48209;-67
2022/03/10 01:47:10;;;;;;;;;33.75;32.25;;;;;13.18;43.71;101423.59;2123165;27;47204;-68
2022/03/10 01:48:11;;;;;;;;;35.00;32.20;;;;;13.17;43.61;101416.47;2125552;27;47419;-66
2022/03/10 01:49:11;;;;;;;;;36.00;31.50;;;;;13.14;43.67;101416.53;2123738;27;48521;-67
2022/03/10 01:50:13;;;;;;;;;33.00;30.00;;;;;13.13;43.93;101422.78;2123297;27;47687;-67
2022/03/10 01:51:14;;;;;;;;;28.20;28.20;;;;;13.12;43.81;101423.69;2121902;27;47332;-68
2022/03/10 01:52:18;;;;;;;;;35.00;30.50;;;;;13.13;43.68;101413.91;2109428;27;47308;-67
2022/03/10 01:53:18;;;;;;;;;32.60;30.60;;;;;13.13;43.82;101414.78;2111485;27;48241;-67
2022/03/10 01:54:20;;;;;;;;;33.75;30.00;;;;;13.12;43.65;101418.38;2122298;27;47648;-67
2022/03/10 01:55:20;;;;;;;;;31.40;29.80;;;;;13.11;43.81;101416.63;2124604;27;47778;-68
2022/03/10 01:56:22;;;;;;;;;31.25;29.50;;;;;13.10;43.69;101417.53;2121735;27;47833;-67
2022/03/10 01:57:24;;;;;;;;;31.60;29.60;;;;;13.11;43.78;101415.72;2125160;27;47603;-67
2022/03/10 01:58:25;;;;;;;;;34.00;29.40;;;;;13.11;43.79;101415.72;2121479;27;47508;-67
2022/03/10 01:59:26;;;;;;;;;35.25;30.50;;;;;13.09;43.67;101415.78;2122134;27;47538;-68
2022/03/10 02:00:27;;;;;;;;;30.80;28.80;;;;;13.08;43.65;101413.13;2121192;27;48127;-68
2022/03/10 02:01:27;;;;;;;;;27.00;25.50;;;;;13.07;43.77;101414.91;2121897;27;48022;-66
2022/03/10 02:02:28;;;;;;;;;35.50;32.75;;;;;13.07;43.64;101416.69;2121553;27;47855;-67
2022/03/10 02:03:28;;;;;;;;;30.75;30.25;;;;;13.05;43.79;101408.72;2106993;27;46046;-66
2022/03/10 02:04:29;;;;;;;;;36.50;32.50;;;;;13.05;43.83;101414.06;2104978;27;47544;-68
2022/03/10 02:05:31;;;;;;;;;33.25;30.25;;;;;13.05;43.66;101408.72;2125058;27;47241;-67
2022/03/10 02:06:32;;;;;;;;;27.40;27.00;;;;;13.03;43.79;101415.00;2128572;27;47495;-68
2022/03/10 02:10:17;;;;;;;;;32.00;30.00;;;;;13.01;43.75;101407.03;2128316;27;48197;-69
2022/03/10 02:11:19;;;;;;;;;32.60;30.20;;;;;13.01;43.74;101415.03;2124454;27;47907;-69
2022/03/10 02:12:19;;;;;;;;;32.80;31.20;;;;;13.01;43.83;101408.84;2124899;27;48009;-63
2022/03/10 02:13:19;;;;;;;;;31.50;30.50;;;;;12.99;43.74;101410.66;2127857;27;47388;-68
2022/03/10 02:18:19;;;;;;;;;33.20;32.20;;;;;12.91;43.84;101406.34;2129043;27;47852;-68
2022/03/10 02:19:19;;;;;;;;;31.60;29.40;;;;;12.92;43.93;101408.09;2124960;27;47821;-66
2022/03/10 02:20:20;;;;;;;;;35.50;31.75;;;;;12.90;43.74;101409.06;2126404;27;47144;-68
2022/03/10 02:21:21;;;;;;;;;31.20;30.60;;;;;12.89;43.81;101407.28;2123669;27;48021;-68
2022/03/10 02:22:23;;;;;;;;;31.20;29.20;;;;;12.88;43.86;101410.88;2121081;27;47891;-67
2022/03/10 02:23:24;;;;;;;;;31.80;28.80;;;;;12.87;43.82;101409.13;2123604;27;47956;-69
2022/03/10 02:24:24;;;;;;;;;33.75;30.75;;;;;12.85;43.79;101414.47;2128762;27;47880;-68
2022/03/10 02:25:27;;;;;;;;;31.50;30.25;;;;;12.84;43.74;101410.06;2129253;27;47468;-68
2022/03/10 02:26:27;;;;;;;;;23.40;22.60;;;;;12.84;43.81;101415.41;2123008;27;47672;-67
2022/03/10 02:27:28;;;;;;;;;30.75;29.75;;;;;12.82;43.86;101406.53;2126783;27;47645;-68
2022/03/10 02:28:28;;;;;;;;;31.50;27.25;;;;;12.81;43.75;101412.75;2125720;27;47956;-66
2022/03/10 02:29:29;;;;;;;;;25.00;24.50;;;;;12.79;43.51;101411.03;2128706;27;47694;-69
2022/03/10 02:30:30;;;;;;;;;29.00;28.75;;;;;12.78;43.81;101407.50;2125057;27;47811;-68
2022/03/10 02:31:31;;;;;;;;;32.20;29.80;;;;;12.77;43.80;101405.75;2122767;27;47611;-68
2022/03/10 02:32:31;;;;;;;;;36.25;33.25;;;;;12.79;43.98;101411.03;2122921;27;47898;-68
2022/03/10 02:33:32;;;;;;;;;34.75;32.25;;;;;12.77;43.82;101407.53;2123094;27;48333;-68
2022/03/10 02:34:32;;;;;;;;;30.00;27.00;;;;;12.77;44.00;101410.19;2096714;28;47580;-69
2022/03/10 02:35:33;;;;;;;;;34.25;31.00;;;;;12.76;43.85;101409.31;2102278;28;47895;-69
2022/03/10 02:36:33;;;;;;;;;34.20;31.80;;;;;12.76;43.85;101403.13;2126189;27;47797;-68
2022/03/10 02:37:34;;;;;;;;;34.00;31.50;;;;;12.75;43.83;101407.56;2127472;27;47961;-69
2022/03/10 02:38:34;;;;;;;;;31.25;30.25;;;;;12.71;44.05;101405.88;2123649;27;47864;-68
2022/03/10 02:39:35;;;;;;;;;29.25;27.75;;;;;12.72;44.14;101412.97;2125677;27;47606;-67
2022/03/10 02:40:36;;;;;;;;;36.60;30.60;;;;;12.72;43.82;101407.66;2122534;27;47267;-67
2022/03/10 02:41:36;;;;;;;;;30.25;27.50;;;;;12.71;43.88;101410.34;2124670;27;47715;-65
2022/03/10 02:42:37;;;;;;;;;30.50;27.50;;;;;12.70;43.89;101412.09;2130228;27;47924;-68
2022/03/10 02:43:37;;;;;;;;;26.50;25.00;;;;;12.70;44.20;101416.53;2126141;27;47552;-67
2022/03/10 02:44:46;;;;;;;;;24.25;24.00;;;;;12.70;44.07;101417.41;2122427;27;47418;-67
2022/03/10 02:45:47;;;;;;;;;27.00;25.40;;;;;12.68;44.10;101408.59;2129213;27;48271;-68
2022/03/10 02:46:48;;;;;;;;;33.00;30.75;;;;;12.68;43.93;101417.44;2125617;27;47649;-67
2022/03/10 02:47:48;;;;;;;;;31.50;31.00;;;;;12.68;43.84;101419.25;2129199;27;47542;-66
2022/03/10 02:48:48;;;;;;;;;28.25;27.25;;;;;12.66;43.69;101419.28;2129593;27;47433;-68
2022/03/10 02:49:49;;;;;;;;;28.25;28.25;;;;;12.65;43.83;101419.31;2123312;27;47747;-67
2022/03/10 02:50:49;;;;;;;;;30.00;28.00;;;;;12.64;44.00;101412.22;2103182;28;47524;-68
2022/03/10 02:51:51;;;;;;;;;32.25;31.25;;;;;12.63;44.06;101415.81;2104146;28;47674;-66
2022/03/10 02:52:52;;;;;;;;;36.00;30.80;;;;;12.62;44.15;101414.91;2113481;27;47376;-68
2022/03/10 02:53:52;;;;;;;;;32.00;30.50;;;;;12.63;43.98;101416.69;2116952;27;47983;-65
2022/03/10 02:54:52;;;;;;;;;31.00;28.50;;;;;12.64;44.11;101417.56;2123314;27;48130;-67
2022/03/10 02:55:53;;;;;;;;;36.25;32.50;;;;;12.63;43.60;101414.00;2123302;27;47827;-67
2022/03/10 02:56:53;;;;;;;;;34.25;29.00;;;;;12.65;44.01;101416.66;2122302;27;47823;-66
2022/03/10 02:57:54;;;;;;;;;27.50;27.50;;;;;12.65;44.25;101417.53;2123614;27;47791;-68
2022/03/10 02:58:54;;;;;;;;;31.25;27.50;;;;;12.65;43.97;101417.53;2103398;28;47515;-68
2022/03/10 02:59:55;;;;;;;;;28.75;26.75;;;;;12.63;44.10;101416.69;2100892;28;47783;-68
2022/03/10 03:00:55;;;;;;;;;21.25;18.75;;;;;12.64;44.18;101412.22;2122219;27;47979;-68
2022/03/10 03:01:56;;;;;;;;;27.25;25.75;;;;;12.64;44.09;101420.22;2129964;27;47545;-67
2022/03/10 03:02:56;;;;;;;;;28.50;27.25;;;;;12.65;44.09;101419.31;2123140;27;47507;-66
2022/03/10 03:03:57;;;;;;;;;33.25;29.75;;;;;12.64;44.31;101414.88;2122971;27;47496;-68
2022/03/10 03:04:57;;;;;;;;;31.25;29.25;;;;;12.63;44.27;101419.34;2122849;27;47882;-68
2022/03/10 03:05:58;;;;;;;;;33.00;31.25;;;;;12.64;44.14;101420.22;2127845;27;48284;-67
2022/03/10 03:06:59;;;;;;;;;15.25;15.25;;;;;12.65;44.20;101419.31;2114079;27;47132;-66
2022/03/10 03:07:59;;;;;;;;;28.80;28.40;;;;;12.65;44.16;101420.19;2115927;27;47996;-66
2022/03/10 03:09:00;;;;;;;;;34.00;30.25;;;;;12.65;44.13;101425.50;2104892;27;47788;-67
2022/03/10 03:10:01;;;;;;;;;32.25;30.00;;;;;12.65;44.11;101422.84;2113589;27;47275;-68
2022/03/10 03:11:01;;;;;;;;;31.60;27.80;;;;;12.66;44.10;101421.06;2122410;27;47199;-68
2022/03/10 03:12:02;;;;;;;;;31.50;28.00;;;;;12.66;44.08;101423.72;2125369;27;47723;-67
2022/03/10 03:13:05;;;;;;;;;31.50;30.00;;;;;12.64;44.17;101415.75;2131118;27;47685;-67
2022/03/10 03:14:05;;;;;;;;;32.60;30.80;;;;;12.64;43.94;101415.75;2130869;27;48467;-68
2022/03/10 03:15:06;;;;;;;;;28.50;27.75;;;;;12.63;44.25;101423.78;2131385;27;47598;-67
2022/03/10 03:16:06;;;;;;;;;32.75;31.00;;;;;12.63;44.37;101421.13;2125604;27;47777;-67
2022/03/10 03:17:07;;;;;;;;;28.00;28.00;;;;;12.63;44.26;101421.13;2122445;27;47863;-65
2022/03/10 03:18:08;;;;;;;;;30.00;29.00;;;;;12.64;44.28;101430.88;2122365;27;47793;-67
2022/03/10 03:19:08;;;;;;;;;36.00;31.50;;;;;12.63;44.10;101422.00;2126778;27;47825;-67
2022/03/10 03:20:14;;;;;;;;;31.25;29.75;;;;;12.63;44.23;101429.13;2131052;27;47571;-69
2022/03/10 03:21:14;;;;;;;;;29.40;27.60;;;;;12.63;44.00;101421.13;2123315;27;47751;-67
2022/03/10 03:22:15;;;;;;;;;32.00;30.75;;;;;12.62;44.15;101420.25;2122408;27;47325;-68
2022/03/10 03:23:16;;;;;;;;;36.75;31.00;;;;;12.62;44.47;101424.69;2122578;27;47461;-67
2022/03/10 03:24:17;;;;;;;;;34.60;31.80;;;;;12.60;44.30;101423.84;2122247;27;47780;-66
2022/03/10 03:25:17;;;;;;;;;32.00;28.20;;;;;12.60;44.28;101414.06;2105361;27;47493;-68
2022/03/10 03:26:18;;;;;;;;;30.50;30.00;;;;;12.59;44.22;101422.97;2112975;27;45906;-67
2022/03/10 03:27:18;;;;;;;;;31.00;30.25;;;;;12.59;44.44;101420.31;2125955;27;47593;-68
2022/03/10 03:28:21;;;;;;;;;28.25;27.25;;;;;12.59;44.36;101422.97;2122446;27;47420;-68
2022/03/10 03:29:21;;;;;;;;;30.60;30.20;;;;;12.59;44.30;101424.75;2125558;27;47995;-67
2022/03/10 03:30:22;;;;;;;;;33.25;30.50;;;;;12.59;44.40;101425.63;2122041;27;47922;-67
2022/03/10 03:31:22;;;;;;;;;30.00;27.75;;;;;12.59;44.49;101424.75;2122621;27;48098;-67
2022/03/10 03:32:23;;;;;;;;;30.50;30.50;;;;;12.58;44.44;101429.22;2122015;27;47831;-67
2022/03/10 03:33:23;;;;;;;;;31.25;28.00;;;;;12.58;44.43;101425.66;2105331;27;47811;-67
2022/03/10 03:34:24;;;;;;;;;30.00;29.50;;;;;12.58;44.42;101426.53;2112289;27;47470;-66
2022/03/10 03:35:25;;;;;;;;;34.25;30.50;;;;;12.59;44.28;101424.75;2130550;27;47238;-67
2022/03/10 03:36:25;;;;;;;;;32.40;28.00;;;;;12.60;44.21;101437.16;2123296;27;48108;-67
2022/03/10 03:37:26;;;;;;;;;32.75;31.50;;;;;12.59;44.41;101430.97;2122102;27;47646;-66
2022/03/10 03:38:26;;;;;;;;;29.50;28.75;;;;;12.61;44.49;101425.59;2122503;27;47686;-64
2022/03/10 03:39:26;;;;;;;;;31.25;29.75;;;;;12.59;44.24;101433.63;2122345;27;47396;-68
2022/03/10 03:40:27;;;;;;;;;30.00;29.50;;;;;12.59;44.42;101433.63;2123743;27;47678;-68
2022/03/10 03:41:27;;;;;;;;;28.75;28.75;;;;;12.58;44.30;101431.88;2130923;27;47523;-68
2022/03/10 03:42:32;;;;;;;;;31.75;30.00;;;;;12.58;44.24;101429.22;2126283;27;47358;-68
2022/03/10 03:43:33;;;;;;;;;32.60;30.40;;;;;12.57;44.18;101429.22;2125495;27;47981;-69
2022/03/10 03:44:33;;;;;;;;;35.25;30.25;;;;;12.56;44.43;101427.47;2122801;27;47851;-67
2022/03/10 03:45:34;;;;;;;;;33.75;32.25;;;;;12.56;44.42;101431.00;2121887;27;47743;-68
2022/03/10 03:46:35;;;;;;;;;29.25;26.00;;;;;12.55;44.45;101428.38;2127344;27;47616;-65
2022/03/10 03:47:36;;;;;;;;;31.40;30.40;;;;;12.56;44.51;101432.78;2130681;27;47777;-67
2022/03/10 03:48:36;;;;;;;;;33.25;29.25;;;;;12.56;44.62;101430.13;2122723;27;47539;-66
2022/03/10 03:49:36;;;;;;;;;29.25;26.25;;;;;12.56;44.63;101431.00;2122485;27;47319;-67
2022/03/10 03:50:37;;;;;;;;;29.75;29.00;;;;;12.56;44.29;101435.44;2122449;27;47659;-68
2022/03/10 03:51:38;;;;;;;;;36.25;31.25;;;;;12.54;44.38;101434.59;2122636;27;48256;-67
2022/03/10 03:52:38;;;;;;;;;31.75;28.50;;;;;12.55;44.49;101437.22;2122574;27;47393;-67
2022/03/10 03:53:39;;;;;;;;;36.00;30.00;;;;;12.53;44.47;101431.06;2121876;27;47986;-66
2022/03/10 03:54:39;;;;;;;;;38.50;30.25;;;;;12.54;44.55;101429.28;2122246;27;47571;-68
2022/03/10 03:55:40;;;;;;;;;28.75;28.75;;;;;12.54;44.51;101431.94;2121865;27;47793;-69
2022/03/10 03:56:40;;;;;;;;;35.25;29.00;;;;;12.55;44.56;101428.38;2112213;27;47550;-67
2022/03/10 03:57:41;;;;;;;;;36.25;29.25;;;;;12.54;44.41;101437.25;2112145;27;47932;-66
2022/03/10 03:58:41;;;;;;;;;25.00;23.50;;;;;12.53;44.38;101430.19;2122428;27;48023;-67
2022/03/10 03:59:42;;;;;;;;;37.75;34.50;;;;;12.51;44.38;101424.88;2095801;28;46091;-67
2022/03/10 04:00:42;;;;;;;;;33.50;31.75;;;;;12.51;44.54;101435.53;2103813;28;48038;-67
2022/03/10 04:01:43;;;;;;;;;29.00;28.25;;;;;12.50;44.61;101439.09;2103930;28;47580;-67
2022/03/10 04:02:43;;;;;;;;;28.75;28.50;;;;;12.51;44.53;101437.31;2094972;28;47595;-67
2022/03/10 04:03:44;;;;;;;;;32.75;31.25;;;;;12.51;44.62;101429.34;2088990;28;47742;-67
2022/03/10 04:04:44;;;;;;;;;29.25;28.00;;;;;12.51;44.48;101440.00;2097523;28;47797;-66
2022/03/10 04:05:45;;;;;;;;;32.00;25.25;;;;;12.51;44.72;101448.84;2103521;28;47924;-67
2022/03/10 04:06:45;;;;;;;;;37.00;32.75;;;;;12.52;44.62;101439.06;2104077;28;47228;-64
2022/03/10 04:07:46;;;;;;;;;28.50;28.50;;;;;12.51;44.54;101440.00;2103667;28;47091;-68
2022/03/10 04:08:46;;;;;;;;;30.25;29.50;;;;;12.51;44.45;101440.00;2104481;28;45505;-66
2022/03/10 04:09:47;;;;;;;;;30.00;28.25;;;;;12.50;44.57;101439.09;2103869;28;47253;-67
2022/03/10 04:10:47;;;;;;;;;28.25;27.25;;;;;12.51;44.55;101438.19;2095180;28;48040;-67
2022/03/10 04:11:49;;;;;;;;;32.25;31.50;;;;;12.50;44.44;101438.22;2095537;28;48046;-65
2022/03/10 04:12:49;;;;;;;;;32.60;29.00;;;;;12.49;44.71;101434.69;2104108;28;47769;-69
2022/03/10 04:13:50;;;;;;;;;33.00;30.00;;;;;12.49;44.42;101441.81;2099343;28;48084;-67
2022/03/10 04:14:50;;;;;;;;;33.00;30.75;;;;;12.49;44.46;101439.16;2095932;28;47411;-67
2022/03/10 04:15:51;;;;;;;;;34.50;30.75;;;;;12.48;44.65;101443.59;2095417;28;47980;-67
2022/03/10 04:16:51;;;;;;;;;31.75;27.75;;;;;12.48;44.63;101446.25;2081286;28;48183;-68
2022/03/10 04:17:52;;;;;;;;;33.00;27.50;;;;;12.47;44.61;101443.63;2087360;28;47556;-67
2022/03/10 04:18:52;;;;;;;;;35.50;31.75;;;;;12.47;44.67;101440.97;2098156;28;47319;-67
2022/03/10 04:19:53;;;;;;;;;32.00;31.00;;;;;12.47;44.49;101448.94;2096247;28;47687;-66
2022/03/10 04:20:53;;;;;;;;;29.00;26.50;;;;;12.45;44.66;101441.00;2102671;28;47990;-66
2022/03/10 04:21:54;;;;;;;;;35.25;33.00;;;;;12.45;44.77;101446.31;2099989;28;47397;-67
2022/03/10 04:22:54;;;;;;;;;31.25;28.50;;;;;12.46;44.67;101448.06;2096417;28;47406;-68
2022/03/10 04:23:55;;;;;;;;;34.00;31.75;;;;;12.45;44.78;101448.06;2104158;28;48185;-68
2022/03/10 04:24:55;;;;;;;;;27.50;26.25;;;;;12.44;44.68;101446.31;2101304;28;47232;-67
2022/03/10 04:25:55;;;;;;;;;33.25;31.00;;;;;12.44;44.62;101455.19;2095499;28;47572;-68
2022/03/10 04:26:56;;;;;;;;;32.75;31.50;;;;;12.44;44.66;101454.28;2096916;28;47867;-67
2022/03/10 04:27:56;;;;;;;;;31.00;28.25;;;;;12.44;44.77;101447.19;2096132;28;47382;-68
2022/03/10 04:28:57;;;;;;;;;30.25;30.00;;;;;12.43;44.69;101448.09;2103865;28;48060;-69
2022/03/10 04:29:57;;;;;;;;;33.50;31.50;;;;;12.43;44.94;101456.09;2103997;28;47537;-67
2022/03/10 04:30:58;;;;;;;;;33.25;30.25;;;;;12.44;44.85;101448.97;2102203;27;47675;-67
2022/03/10 04:31:58;;;;;;;;;28.25;28.25;;;;;12.43;44.69;101450.75;2113005;27;47718;-67
2022/03/10 04:33:00;;;;;;;;;28.25;26.75;;;;;12.43;44.91;101453.41;2112624;27;47133;-68
2022/03/10 04:34:00;;;;;;;;;37.60;33.40;;;;;12.42;44.76;101453.44;2113001;27;47353;-67
2022/03/10 04:35:01;;;;;;;;;34.00;30.00;;;;;12.41;44.86;101452.56;2113002;27;47738;-67
2022/03/10 04:36:02;;;;;;;;;27.50;27.50;;;;;12.41;44.69;101449.91;2121300;27;47253;-67
2022/03/10 04:37:02;;;;;;;;;35.00;31.00;;;;;12.41;44.70;101451.69;2120143;27;47441;-68
2022/03/10 04:38:03;;;;;;;;;35.25;31.50;;;;;12.40;44.94;101455.28;2122255;27;47376;-69
2022/03/10 04:39:04;;;;;;;;;28.00;27.50;;;;;12.40;44.74;101457.94;2112583;27;47165;-66
2022/03/10 04:40:06;;;;;;;;;32.80;30.60;;;;;12.38;45.03;101455.28;2112981;27;47633;-68
2022/03/10 04:41:06;;;;;;;;;33.20;31.20;;;;;12.37;45.08;101453.53;2095158;28;47640;-67
2022/03/10 04:42:07;;;;;;;;;31.00;30.75;;;;;12.37;45.07;101464.19;2101797;28;47824;-68
2022/03/10 04:43:08;;;;;;;;;35.60;32.40;;;;;12.37;44.95;101458.88;2122771;27;47692;-68